This is the latest recevied weather packets stored in our database for station/object CA3EAP-13. If no packets are shown the sender has not sent any weather packets the latest 10 day(s).
| Time | Temp. | Humidity | Pressure | Rain* | Wind** | Luminosity | Snow |
|---|---|---|---|---|---|---|---|
| 1777640104 | 13.89° C | 84% | 1019.3 hPa | - | - | - | - |
| 1777639504 | 13.89° C | 83% | 1019.3 hPa | - | - | - | - |
| 1777638904 | 14.44° C | 83% | 1018.9 hPa | - | - | - | - |
| 1777638304 | 13.33° C | 89% | 1019.2 hPa | - | - | - | - |
| 1777637704 | 13.33° C | 88% | 1019.2 hPa | - | - | - | - |
| 1777637104 | 13.33° C | 86% | 1018.9 hPa | - | - | - | - |
| 1777636504 | 14.44° C | 80% | 1018.4 hPa | - | - | - | - |
| 1777635904 | 13.89° C | 83% | 1018.2 hPa | - | - | - | - |
| 1777635304 | 13.89° C | 81% | 1018 hPa | - | - | - | - |
| 1777634704 | 14.44° C | 81% | 1018 hPa | - | - | - | - |
| 1777634104 | 13.89° C | 86% | 1018 hPa | - | - | - | - |
| 1777633504 | 12.78° C | 88% | 1018.2 hPa | - | - | - | - |
| 1777632904 | 13.33° C | 86% | 1018.2 hPa | - | - | - | - |
| 1777632304 | 13.89° C | 82% | 1017.9 hPa | - | - | - | - |
| 1777631704 | 15° C | 77% | 1017.2 hPa | - | - | - | - |
| 1777631104 | 14.44° C | 78% | 1017.2 hPa | - | - | - | - |
| 1777630504 | 13.89° C | 83% | 1017.4 hPa | - | - | - | - |
| 1777629904 | 13.33° C | 83% | 1017.6 hPa | - | - | - | - |
| 1777629304 | 14.44° C | 77% | 1017.1 hPa | - | - | - | - |
| 1777628704 | 15° C | 77% | 1016.9 hPa | - | - | - | - |
| 1777628104 | 15.56° C | 75% | 1016.7 hPa | - | - | - | - |
| 1777627504 | 15° C | 77% | 1016.7 hPa | - | - | - | - |
| 1777626905 | 15.56° C | 74% | 1016.5 hPa | - | - | - | - |
| 1777626304 | 15.56° C | 75% | 1016.5 hPa | - | - | - | - |
| 1777625704 | 15° C | 76% | 1016.7 hPa | - | - | - | - |
* Rain since midnight (hover to see other rain measurements)
** Current wind speed in m/s (hover to see current wind gust speed)